createdAt,value
2016-10-31T00:00:41.745Z,84.23
2016-10-31T00:01:41.810Z,83.85
2016-10-31T00:02:41.948Z,83.98
2016-10-31T00:03:41.933Z,83.6
2016-10-31T00:04:41.933Z,83.89
2016-10-31T00:05:42.000Z,83.75
2016-10-31T00:06:42.047Z,83.8
2016-10-31T00:07:42.108Z,83.41
2016-10-31T00:08:42.141Z,83.03
2016-10-31T00:09:42.231Z,83.51
2016-10-31T00:10:42.274Z,83.41
2016-10-31T00:11:42.306Z,83.41
2016-10-31T00:12:42.348Z,83.98
2016-10-31T00:13:42.433Z,84.52
2016-10-31T00:14:42.464Z,84.52
2016-10-31T00:15:42.497Z,84.23
2016-10-31T00:16:42.530Z,84.14
2016-10-31T00:17:42.600Z,84.08
2016-10-31T00:18:42.643Z,84.42
2016-10-31T00:19:42.707Z,84.66
2016-10-31T00:20:42.772Z,84.18
2016-10-31T00:21:42.791Z,83.94
2016-10-31T00:22:42.860Z,84.14
2016-10-31T00:23:42.898Z,84.71
2016-10-31T00:24:42.949Z,84.52
2016-10-31T00:25:43.007Z,84.71
2016-10-31T00:26:43.027Z,84.33
2016-10-31T00:27:43.083Z,84.18
2016-10-31T00:28:43.762Z,84.81
2016-10-31T00:29:43.200Z,84.52
2016-10-31T00:30:43.262Z,84.18
2016-10-31T00:31:43.306Z,83.98
2016-10-31T00:32:43.322Z,83.8
2016-10-31T00:33:43.503Z,84.27
2016-10-31T00:34:43.441Z,84.71
2016-10-31T00:35:43.476Z,84.52
2016-10-31T00:36:43.529Z,83.94
2016-10-31T00:37:43.597Z,84.27
2016-10-31T00:38:43.733Z,83.65
2016-10-31T00:39:43.694Z,83.89
2016-10-31T00:40:43.734Z,83.41
2016-10-31T00:41:43.804Z,83.12
2016-10-31T00:42:44.389Z,83.47
2016-10-31T00:43:43.912Z,83.18
2016-10-31T00:44:44.011Z,83.51
2016-10-31T00:45:44.003Z,83.51
2016-10-31T00:46:44.029Z,83.6
2016-10-31T00:47:44.082Z,83.7
2016-10-31T00:48:44.161Z,83.98
2016-10-31T00:49:44.217Z,83.41
2016-10-31T00:50:44.225Z,83.8
2016-10-31T00:51:44.292Z,83.6
2016-10-31T00:52:44.359Z,84.04
2016-10-31T00:53:44.386Z,84.04
2016-10-31T00:54:44.478Z,84.04
2016-10-31T00:55:44.496Z,83.94
2016-10-31T00:56:44.548Z,84.14
2016-10-31T00:57:44.599Z,84.04
2016-10-31T00:58:44.660Z,83.7
2016-10-31T00:59:44.705Z,83.7
2016-10-31T01:00:44.740Z,83.85
2016-10-31T01:01:44.788Z,83.41
2016-10-31T01:02:44.833Z,83.03
2016-10-31T01:03:44.880Z,82.84
2016-10-31T01:04:44.913Z,83.41
2016-10-31T01:05:44.986Z,83.31
2016-10-31T01:06:45.038Z,82.54
2016-10-31T01:07:45.091Z,82.35
2016-10-31T01:08:45.146Z,82.84
2016-10-31T01:09:45.283Z,82.07
2016-10-31T01:10:45.237Z,82.07
2016-10-31T01:11:45.280Z,81.97
2016-10-31T01:12:45.311Z,81.68
2016-10-31T01:13:45.394Z,82.07
2016-10-31T01:14:45.528Z,81.97
2016-10-31T01:15:45.487Z,82.1
2016-10-31T01:16:45.537Z,81.78
2016-10-31T01:17:45.590Z,82.45
2016-10-31T01:18:45.615Z,82.35
2016-10-31T01:19:45.711Z,82.26
2016-10-31T01:20:45.722Z,82.16
2016-10-31T01:21:45.807Z,82.54
2016-10-31T01:22:45.805Z,82.45
2016-10-31T01:23:45.877Z,83.47
2016-10-31T01:24:45.947Z,83.47
2016-10-31T01:25:46.000Z,83.37
2016-10-31T01:26:46.063Z,83.65
2016-10-31T01:27:46.643Z,83.37
2016-10-31T01:28:46.129Z,83.75
2016-10-31T01:29:46.179Z,83.31
2016-10-31T01:30:46.229Z,83.51
2016-10-31T01:31:46.290Z,82.79
2016-10-31T01:32:46.327Z,82.74
2016-10-31T01:33:46.367Z,83.22
2016-10-31T01:34:46.419Z,83.75
2016-10-31T01:35:46.490Z,83.27
2016-10-31T01:36:47.049Z,83.37
2016-10-31T01:37:46.584Z,83.27
2016-10-31T01:38:47.232Z,83.37
2016-10-31T01:39:46.688Z,83.12
2016-10-31T01:40:46.737Z,83.31
2016-10-31T01:41:46.766Z,83.03
2016-10-31T01:42:46.815Z,83.03
2016-10-31T01:43:46.882Z,83.37
2016-10-31T01:44:46.950Z,83.7
2016-10-31T01:45:47.062Z,83.31
2016-10-31T01:46:47.023Z,83.41
2016-10-31T01:47:47.094Z,83.22
2016-10-31T01:48:47.157Z,83.08
2016-10-31T01:49:47.167Z,83.94
2016-10-31T01:50:47.347Z,84.14
2016-10-31T01:51:47.301Z,83.75
2016-10-31T01:52:47.300Z,82.98
2016-10-31T01:53:47.374Z,83.27
2016-10-31T01:54:47.435Z,83.37
2016-10-31T01:55:47.454Z,83.18
2016-10-31T01:56:47.515Z,83.31
2016-10-31T01:57:47.560Z,82.93
2016-10-31T01:58:47.631Z,82.84
2016-10-31T01:59:47.672Z,83.22
2016-10-31T02:00:47.729Z,82.93
2016-10-31T02:01:47.781Z,82.64
2016-10-31T02:02:47.848Z,83.22
2016-10-31T02:03:47.862Z,82.64
2016-10-31T02:04:47.937Z,82.64
2016-10-31T02:05:47.997Z,83.03
2016-10-31T02:06:48.017Z,83.27
2016-10-31T02:07:48.064Z,82.45
2016-10-31T02:08:48.116Z,82.84
2016-10-31T02:09:48.149Z,82.74
2016-10-31T02:10:48.231Z,83.22
2016-10-31T02:11:48.276Z,82.74
2016-10-31T02:12:48.338Z,82.45
2016-10-31T02:13:48.395Z,82.54
2016-10-31T02:14:48.406Z,83.03
2016-10-31T02:15:48.481Z,82.64
2016-10-31T02:16:48.622Z,82.93
2016-10-31T02:17:48.587Z,83.41
2016-10-31T02:18:48.616Z,83.7
2016-10-31T02:19:48.686Z,82.89
2016-10-31T02:20:48.748Z,83.22
2016-10-31T02:21:48.877Z,83.31
2016-10-31T02:22:48.810Z,82.45
2016-10-31T02:23:48.837Z,82.54
2016-10-31T02:24:48.945Z,82.54
2016-10-31T02:25:48.969Z,82.54
2016-10-31T02:26:49.110Z,82.35
2016-10-31T02:27:49.086Z,82.64
2016-10-31T02:28:49.118Z,82.64
2016-10-31T02:29:49.189Z,82.84
2016-10-31T02:30:49.222Z,82.64
2016-10-31T02:31:49.356Z,82.64
2016-10-31T02:32:49.306Z,82.35
2016-10-31T02:33:49.395Z,82.35
2016-10-31T02:34:49.416Z,82.54
2016-10-31T02:35:49.442Z,82.45
2016-10-31T02:36:50.016Z,82.45
2016-10-31T02:37:49.594Z,82.45
2016-10-31T02:38:49.656Z,82.54
2016-10-31T02:39:49.677Z,82.45
2016-10-31T02:40:49.730Z,82.45
2016-10-31T02:41:49.763Z,82.64
2016-10-31T02:42:49.825Z,83.41
2016-10-31T02:43:49.877Z,82.93
2016-10-31T02:44:49.917Z,82.74
2016-10-31T02:45:49.981Z,83.12
2016-10-31T02:46:50.013Z,82.93
2016-10-31T02:47:50.073Z,83.22
2016-10-31T02:48:50.114Z,82.74
2016-10-31T02:49:50.164Z,82.74
2016-10-31T02:50:50.244Z,82.64
2016-10-31T02:51:50.300Z,82.35
2016-10-31T02:52:50.322Z,82.35
2016-10-31T02:53:50.362Z,82.45
2016-10-31T02:54:50.430Z,82.64
2016-10-31T02:55:50.479Z,82.45
2016-10-31T02:56:50.523Z,82.64
2016-10-31T02:57:50.665Z,82.54
2016-10-31T02:58:50.613Z,83.41
2016-10-31T02:59:50.701Z,83.51
2016-10-31T03:00:50.731Z,82.84
2016-10-31T03:01:50.757Z,82.84
2016-10-31T03:02:50.918Z,83.12
2016-10-31T03:03:50.873Z,82.74
2016-10-31T03:04:50.915Z,83.22
2016-10-31T03:05:50.962Z,83.03
2016-10-31T03:06:51.032Z,83.41
2016-10-31T03:07:51.181Z,82.54
2016-10-31T03:08:51.136Z,82.54
2016-10-31T03:09:51.178Z,82.84
2016-10-31T03:10:51.214Z,83.22
2016-10-31T03:11:51.266Z,83.41
2016-10-31T03:12:51.332Z,83.22
2016-10-31T03:13:51.380Z,82.64
2016-10-31T03:14:51.433Z,83.31
2016-10-31T03:15:51.477Z,82.74
2016-10-31T03:16:51.525Z,82.84
2016-10-31T03:17:52.109Z,83.31
2016-10-31T03:18:51.630Z,82.74
2016-10-31T03:19:51.674Z,83.41
2016-10-31T03:20:51.729Z,83.31
2016-10-31T03:21:51.774Z,82.64
2016-10-31T03:22:52.381Z,82.54
2016-10-31T03:23:51.841Z,82.54
2016-10-31T03:24:51.951Z,82.45
2016-10-31T03:25:51.984Z,82.35
2016-10-31T03:26:52.021Z,82.54
2016-10-31T03:27:52.102Z,82.35
2016-10-31T03:28:52.137Z,82.49
2016-10-31T03:29:52.159Z,82.49
2016-10-31T03:30:52.230Z,82.4
2016-10-31T03:31:52.256Z,81.97
2016-10-31T03:32:52.335Z,82.3
2016-10-31T03:33:52.477Z,82.3
2016-10-31T03:34:52.409Z,82.54
2016-10-31T03:35:52.471Z,82.45
2016-10-31T03:36:52.530Z,82.35
2016-10-31T03:37:52.572Z,82.74
2016-10-31T03:38:52.735Z,82.74
2016-10-31T03:39:52.664Z,82.45
2016-10-31T03:40:52.730Z,82.84
2016-10-31T03:41:52.775Z,82.64
2016-10-31T03:42:52.811Z,83.36
2016-10-31T03:43:52.992Z,83.31
2016-10-31T03:44:52.930Z,83.22
2016-10-31T03:45:53.468Z,83.03
2016-10-31T03:46:53.043Z,83.54
2016-10-31T03:47:53.077Z,82.68
2016-10-31T03:48:53.238Z,82.49
2016-10-31T03:49:53.217Z,82.68
2016-10-31T03:50:53.216Z,82.78
2016-10-31T03:51:53.284Z,82.4
2016-10-31T03:52:53.351Z,82.49
2016-10-31T03:53:53.380Z,82.4
2016-10-31T03:54:53.447Z,82.87
2016-10-31T03:55:53.488Z,82.49
2016-10-31T03:56:53.528Z,82.3
2016-10-31T03:57:53.569Z,82.3
2016-10-31T03:58:53.642Z,82.49
2016-10-31T03:59:53.675Z,82.01
2016-10-31T04:00:53.751Z,82.49
2016-10-31T04:01:53.780Z,82.4
2016-10-31T04:02:53.827Z,82.1
2016-10-31T04:03:53.898Z,82.01
2016-10-31T04:04:53.929Z,82.01
2016-10-31T04:05:54.001Z,82.2
2016-10-31T04:06:54.046Z,81.63
2016-10-31T04:07:54.079Z,81.92
2016-10-31T04:08:54.146Z,82.49
2016-10-31T04:09:54.178Z,82.68
2016-10-31T04:10:54.232Z,82.45
2016-10-31T04:11:54.279Z,82.84
2016-10-31T04:12:54.332Z,82.93
2016-10-31T04:13:54.377Z,82.54
2016-10-31T04:14:54.549Z,83.31
2016-10-31T04:15:54.487Z,83.41
2016-10-31T04:16:54.514Z,83.31
2016-10-31T04:17:54.609Z,83.41
2016-10-31T04:18:54.611Z,83.03
2016-10-31T04:19:54.805Z,82.54
2016-10-31T04:20:54.730Z,82.45
2016-10-31T04:21:54.758Z,82.26
2016-10-31T04:22:54.819Z,82.64
2016-10-31T04:23:54.908Z,82.93
2016-10-31T04:24:54.929Z,82.64
2016-10-31T04:25:54.978Z,82.84
2016-10-31T04:26:55.028Z,82.64
2016-10-31T04:27:55.100Z,82.45
2016-10-31T04:28:55.139Z,82.26
2016-10-31T04:29:55.202Z,82.45
2016-10-31T04:30:55.230Z,82.26
2016-10-31T04:31:55.295Z,82.4
2016-10-31T04:32:55.332Z,82.3
2016-10-31T04:33:55.365Z,82.26
2016-10-31T04:34:55.462Z,82.49
2016-10-31T04:35:55.496Z,82.16
2016-10-31T04:36:55.522Z,82.3
2016-10-31T04:37:56.119Z,81.92
2016-10-31T04:38:55.678Z,82.01
2016-10-31T04:39:55.697Z,82.01
2016-10-31T04:40:55.724Z,81.53
2016-10-31T04:41:55.812Z,81.92
2016-10-31T04:42:55.809Z,81.92
2016-10-31T04:43:55.894Z,82.1
2016-10-31T04:44:55.932Z,81.82
2016-10-31T04:45:56.009Z,82.1
2016-10-31T04:46:56.022Z,82.2
2016-10-31T04:47:56.099Z,81.63
2016-10-31T04:48:56.136Z,82.2
2016-10-31T04:49:56.171Z,81.72
2016-10-31T04:50:56.350Z,81.63
2016-10-31T04:51:56.288Z,81.82
2016-10-31T04:52:56.319Z,81.92
2016-10-31T04:53:56.409Z,82.01
2016-10-31T04:54:56.449Z,81.72
2016-10-31T04:55:56.569Z,82.1
2016-10-31T04:56:56.549Z,81.72
2016-10-31T04:57:56.595Z,81.82
2016-10-31T04:58:56.622Z,82.01
2016-10-31T04:59:56.705Z,81.43
2016-10-31T05:00:56.817Z,81.43
2016-10-31T05:01:56.771Z,81.53
2016-10-31T05:02:56.846Z,81.34
2016-10-31T05:03:56.888Z,81.43
2016-10-31T05:04:56.927Z,82.01
2016-10-31T05:05:56.996Z,81.43
2016-10-31T05:06:57.060Z,82.01
2016-10-31T05:07:57.097Z,82.01
2016-10-31T05:08:57.183Z,81.43
2016-10-31T05:09:57.192Z,82.49
2016-10-31T05:10:57.250Z,81.63
2016-10-31T05:11:57.291Z,81.72
2016-10-31T05:12:57.328Z,81.82
2016-10-31T05:13:57.389Z,82.1
2016-10-31T05:14:57.413Z,82.1
2016-10-31T05:15:57.489Z,82.2
2016-10-31T05:16:57.547Z,82.01
2016-10-31T05:17:57.603Z,81.82
2016-10-31T05:18:57.638Z,81.43
2016-10-31T05:19:57.668Z,81.63
2016-10-31T05:20:57.747Z,82.2
2016-10-31T05:21:57.794Z,81.72
2016-10-31T05:22:57.857Z,81.72
2016-10-31T05:23:57.899Z,81.82
2016-10-31T05:24:57.951Z,81.63
2016-10-31T05:25:58.018Z,81.53
2016-10-31T05:26:58.079Z,81.72
2016-10-31T05:27:58.081Z,82.01
2016-10-31T05:28:58.138Z,82.1
2016-10-31T05:29:58.203Z,82.1
2016-10-31T05:30:58.222Z,82.1
2016-10-31T05:31:58.403Z,81.92
2016-10-31T05:32:58.320Z,82.01
2016-10-31T05:33:58.414Z,81.63
2016-10-31T05:34:58.456Z,81.63
2016-10-31T05:35:58.469Z,82.2
2016-10-31T05:36:58.640Z,81.72
2016-10-31T05:37:58.595Z,81.72
2016-10-31T05:38:58.671Z,82.01
2016-10-31T05:39:58.686Z,81.82
2016-10-31T05:40:58.760Z,81.72
2016-10-31T05:41:58.810Z,82.1
2016-10-31T05:42:58.839Z,82.3
2016-10-31T05:43:58.894Z,82.01
2016-10-31T05:44:58.957Z,82.01
2016-10-31T05:45:59.002Z,81.72
2016-10-31T05:46:59.061Z,81.63
2016-10-31T05:47:59.085Z,81.63
2016-10-31T05:48:59.156Z,82.01
2016-10-31T05:49:59.206Z,82.01
2016-10-31T05:50:59.225Z,81.82
2016-10-31T05:51:59.310Z,81.63
2016-10-31T05:52:59.366Z,81.72
2016-10-31T05:53:59.403Z,81.63
2016-10-31T05:54:59.424Z,82.2
2016-10-31T05:55:59.493Z,81.72
2016-10-31T05:56:59.551Z,81.82
2016-10-31T05:57:59.590Z,81.82
2016-10-31T05:58:59.631Z,81.63
2016-10-31T05:59:59.688Z,81.72
2016-10-31T06:00:59.756Z,81.92
2016-10-31T06:01:59.794Z,82.01
2016-10-31T06:03:00.474Z,82.49
2016-10-31T06:03:59.888Z,81.72
2016-10-31T06:04:59.949Z,82.01
2016-10-31T06:06:00.013Z,81.63
2016-10-31T06:07:00.084Z,81.82
2016-10-31T06:08:00.720Z,82.01
2016-10-31T06:09:00.165Z,82.49
2016-10-31T06:10:00.214Z,82.59
2016-10-31T06:11:00.802Z,82.45
2016-10-31T06:12:00.283Z,82.49
2016-10-31T06:13:00.441Z,82.49
2016-10-31T06:14:00.422Z,82.3
2016-10-31T06:15:00.450Z,82.49
2016-10-31T06:16:00.497Z,82.49
2016-10-31T06:17:00.562Z,82.4
2016-10-31T06:18:01.412Z,82.01
2016-10-31T06:19:00.639Z,82.49
2016-10-31T06:20:00.742Z,82.01
2016-10-31T06:21:00.745Z,81.72
2016-10-31T06:22:00.835Z,81.72
2016-10-31T06:23:00.859Z,82.2
2016-10-31T06:24:00.899Z,81.72
2016-10-31T06:25:00.990Z,81.53
2016-10-31T06:26:01.008Z,82.1
2016-10-31T06:27:01.049Z,82.1
2016-10-31T06:28:01.612Z,81.72
2016-10-31T06:29:01.177Z,81.63
2016-10-31T06:30:01.223Z,82.1
2016-10-31T06:31:01.262Z,81.34
2016-10-31T06:32:01.313Z,81.82
2016-10-31T06:33:01.366Z,81.82
2016-10-31T06:34:01.421Z,81.53
2016-10-31T06:35:01.486Z,82.01
2016-10-31T06:36:01.494Z,81.92
2016-10-31T06:37:02.119Z,81.63
2016-10-31T06:38:01.617Z,82.2
2016-10-31T06:39:01.661Z,82.3
2016-10-31T06:40:01.711Z,82.1
2016-10-31T06:41:02.283Z,82.3
2016-10-31T06:42:01.791Z,82.01
2016-10-31T06:43:01.891Z,82.01
2016-10-31T06:44:02.016Z,82.01
2016-10-31T06:45:01.972Z,82.1
2016-10-31T06:46:02.030Z,81.63
2016-10-31T06:47:02.069Z,82.01
2016-10-31T06:48:02.135Z,82.3
2016-10-31T06:49:02.278Z,82.3
2016-10-31T06:50:02.227Z,82.4
2016-10-31T06:51:02.272Z,82.68
2016-10-31T06:52:02.327Z,82.59
2016-10-31T06:53:02.395Z,82.4
2016-10-31T06:54:02.413Z,82.01
2016-10-31T06:55:02.466Z,82.3
2016-10-31T06:56:02.507Z,81.53
2016-10-31T06:57:02.564Z,82.59
2016-10-31T06:58:02.612Z,82.49
2016-10-31T06:59:02.659Z,82.45
2016-10-31T07:00:03.231Z,82.4
2016-10-31T07:01:02.763Z,82.01
2016-10-31T07:02:02.801Z,81.34
2016-10-31T07:03:02.893Z,81.72
2016-10-31T07:04:02.911Z,81.72
2016-10-31T07:05:02.961Z,82.3
2016-10-31T07:06:02.997Z,81.53
2016-10-31T07:07:03.088Z,81.72
2016-10-31T07:08:03.118Z,81.92
2016-10-31T07:09:03.158Z,82.2
2016-10-31T07:10:03.308Z,82.49
2016-10-31T07:11:03.258Z,82.49
2016-10-31T07:12:03.311Z,82.4
2016-10-31T07:13:03.358Z,82.49
2016-10-31T07:14:03.403Z,82.3
2016-10-31T07:15:03.548Z,82.01
2016-10-31T07:16:03.516Z,82.01
2016-10-31T07:17:03.594Z,82.49
2016-10-31T07:18:03.608Z,82.3
2016-10-31T07:19:03.666Z,82.4
2016-10-31T07:20:03.817Z,81.63
2016-10-31T07:21:03.738Z,82.1
2016-10-31T07:22:03.838Z,82.1
2016-10-31T07:23:03.860Z,82.01
2016-10-31T07:24:03.926Z,82.49
2016-10-31T07:25:04.064Z,82.1
2016-10-31T07:26:04.039Z,82.49
2016-10-31T07:27:04.087Z,82.01
2016-10-31T07:28:04.121Z,81.63
2016-10-31T07:29:04.158Z,81.63
2016-10-31T07:30:04.218Z,81.82
2016-10-31T07:31:04.278Z,81.72
2016-10-31T07:32:04.297Z,81.72
2016-10-31T07:33:04.342Z,81.63
2016-10-31T07:34:04.425Z,81.49
2016-10-31T07:35:04.453Z,81.43
2016-10-31T07:36:04.518Z,82.2
2016-10-31T07:37:04.569Z,81.4
2016-10-31T07:38:04.610Z,81.63
2016-10-31T07:39:04.684Z,81.63
2016-10-31T07:40:04.714Z,81.72
2016-10-31T07:41:04.795Z,82.1
2016-10-31T07:42:04.797Z,81.43
2016-10-31T07:43:04.889Z,82.07
2016-10-31T07:44:04.895Z,82.07
2016-10-31T07:45:04.973Z,81.72
2016-10-31T07:46:05.011Z,81.82
2016-10-31T07:47:05.066Z,82.01
2016-10-31T07:48:05.115Z,81.72
2016-10-31T07:49:05.160Z,81.72
2016-10-31T07:50:05.188Z,81.43
2016-10-31T07:51:05.356Z,81.63
2016-10-31T07:52:05.328Z,81.92
2016-10-31T07:53:05.364Z,81.05
2016-10-31T07:54:05.402Z,80.96
2016-10-31T07:55:05.456Z,81.82
2016-10-31T07:56:05.603Z,81.05
2016-10-31T07:57:05.579Z,81.24
2016-10-31T07:58:05.602Z,81.43
2016-10-31T07:59:05.673Z,81.53
2016-10-31T08:00:05.702Z,81.34
2016-10-31T08:01:05.855Z,81.63
2016-10-31T08:02:05.823Z,81.43
2016-10-31T08:03:05.882Z,81.63
2016-10-31T08:04:05.919Z,81.4
2016-10-31T08:05:05.975Z,81.92
2016-10-31T08:06:06.025Z,82.01
2016-10-31T08:07:06.083Z,81.72
2016-10-31T08:08:06.113Z,81.82
2016-10-31T08:09:06.179Z,81.63
2016-10-31T08:10:06.231Z,81.72
2016-10-31T08:11:06.279Z,81.72
2016-10-31T08:12:06.311Z,81.43
2016-10-31T08:13:06.382Z,81.43
2016-10-31T08:14:06.412Z,82.01
2016-10-31T08:15:06.464Z,81.43
2016-10-31T08:16:06.496Z,81.53
2016-10-31T08:17:06.579Z,81.82
2016-10-31T08:18:06.612Z,81.72
2016-10-31T08:19:06.680Z,81.72
2016-10-31T08:20:06.729Z,81.72
2016-10-31T08:21:06.751Z,81.34
2016-10-31T08:22:06.953Z,81.43
2016-10-31T08:23:06.885Z,82.1
2016-10-31T08:24:06.914Z,81.34
2016-10-31T08:25:06.987Z,81.72
2016-10-31T08:26:07.017Z,82.01
2016-10-31T08:27:07.169Z,81.49
2016-10-31T08:28:07.123Z,81.59
2016-10-31T08:29:07.181Z,81.49
2016-10-31T08:30:07.228Z,81.68
2016-10-31T08:31:07.241Z,81.72
2016-10-31T08:32:07.326Z,81.78
2016-10-31T08:33:07.358Z,81.68
2016-10-31T08:34:07.419Z,81.92
2016-10-31T08:35:07.475Z,82.01
2016-10-31T08:36:07.504Z,81.97
2016-10-31T08:37:07.571Z,82.2
2016-10-31T08:38:07.608Z,81.59
2016-10-31T08:39:07.681Z,81.68
2016-10-31T08:40:07.740Z,81.87
2016-10-31T08:41:08.275Z,81.78
2016-10-31T08:42:07.841Z,81.78
2016-10-31T08:43:08.382Z,81.82
2016-10-31T08:44:07.924Z,81.4
2016-10-31T08:45:07.985Z,82.07
2016-10-31T08:46:08.026Z,81.53
2016-10-31T08:47:08.059Z,81.49
2016-10-31T08:48:08.154Z,81.82
2016-10-31T08:49:08.181Z,81.97
2016-10-31T08:50:08.234Z,82.26
2016-10-31T08:51:08.293Z,81.97
2016-10-31T08:52:08.323Z,82.26
2016-10-31T08:53:08.359Z,81.72
2016-10-31T08:54:08.409Z,81.92
2016-10-31T08:55:09.004Z,81.82
2016-10-31T08:56:08.504Z,81.82
2016-10-31T08:57:08.558Z,81.34
2016-10-31T08:58:08.746Z,81.63
2016-10-31T08:59:08.675Z,81.34
2016-10-31T09:00:08.757Z,81.59
2016-10-31T09:01:08.778Z,81.72
2016-10-31T09:02:08.833Z,82.01
2016-10-31T09:03:09.006Z,81.92
2016-10-31T09:04:08.903Z,81.82
2016-10-31T09:05:08.966Z,82.01
2016-10-31T09:06:09.037Z,81.82
2016-10-31T09:07:09.079Z,81.53
2016-10-31T09:08:09.137Z,81.63
2016-10-31T09:09:09.203Z,82.01
2016-10-31T09:10:09.216Z,81.72
2016-10-31T09:11:09.262Z,81.92
2016-10-31T09:12:09.323Z,82.01
2016-10-31T09:13:09.584Z,81.72
2016-10-31T09:14:09.405Z,82.3
2016-10-31T09:15:09.490Z,81.63
2016-10-31T09:16:10.070Z,81.53
2016-10-31T09:17:09.616Z,82.2
2016-10-31T09:18:09.635Z,81.82
2016-10-31T09:19:09.692Z,81.63
2016-10-31T09:20:09.713Z,81.43
2016-10-31T09:21:09.832Z,81.53
2016-10-31T09:22:09.820Z,81.72
2016-10-31T09:23:09.847Z,80.96
2016-10-31T09:24:10.001Z,80.86
2016-10-31T09:25:09.995Z,81.34
2016-10-31T09:26:10.026Z,80.86
2016-10-31T09:27:10.073Z,81.24
2016-10-31T09:28:10.101Z,81.43
2016-10-31T09:29:10.197Z,81.15
2016-10-31T09:30:10.222Z,80.96
2016-10-31T09:31:10.269Z,81.63
2016-10-31T09:32:10.315Z,81.72
2016-10-31T09:33:10.368Z,81.15
2016-10-31T09:34:10.532Z,80.86
2016-10-31T09:35:10.489Z,81.05
2016-10-31T09:36:10.541Z,81.05
2016-10-31T09:37:10.612Z,81.09
2016-10-31T09:38:10.596Z,80.9
2016-10-31T09:39:10.772Z,81.15
2016-10-31T09:40:10.729Z,80.61
2016-10-31T09:41:10.745Z,80.22
2016-10-31T09:42:10.841Z,80.32
2016-10-31T09:43:10.881Z,80.32
2016-10-31T09:44:11.566Z,80.13
2016-10-31T09:45:10.975Z,80.32
2016-10-31T09:46:11.079Z,80.71
2016-10-31T09:47:11.086Z,80.32
2016-10-31T09:48:11.120Z,79.94
2016-10-31T09:49:11.180Z,79.94
2016-10-31T09:50:11.226Z,79.17
2016-10-31T09:51:11.293Z,78.69
2016-10-31T09:52:11.349Z,78.53
2016-10-31T09:53:11.398Z,78.53
2016-10-31T09:54:11.449Z,78.15
2016-10-31T09:55:11.503Z,77.48
2016-10-31T09:56:11.556Z,76.61
2016-10-31T09:57:11.605Z,75.88
2016-10-31T09:58:11.633Z,75.05
2016-10-31T09:59:11.688Z,74.96
2016-10-31T10:00:11.996Z,73.61
2016-10-31T10:01:11.792Z,73.65
2016-10-31T10:02:11.849Z,73.9
2016-10-31T10:03:11.884Z,73.13
2016-10-31T10:04:12.479Z,73.71
2016-10-31T10:05:12.005Z,74.13
2016-10-31T10:06:12.077Z,73.94
2016-10-31T10:07:12.102Z,73.99
2016-10-31T10:08:12.653Z,72.59
2016-10-31T10:09:12.219Z,72.68
2016-10-31T10:10:12.274Z,71.37
2016-10-31T10:11:12.325Z,71.18
2016-10-31T10:12:12.383Z,71.18
2016-10-31T10:13:12.439Z,70.44
2016-10-31T10:14:12.510Z,70.31
2016-10-31T10:15:13.172Z,70.6
2016-10-31T10:16:12.588Z,70.89
2016-10-31T10:17:12.617Z,70.21
2016-10-31T10:18:12.929Z,70.64
2016-10-31T10:19:12.768Z,69.73
2016-10-31T10:20:12.892Z,69.96
2016-10-31T10:21:12.872Z,70.31
2016-10-31T10:22:12.906Z,70.79
2016-10-31T10:23:12.969Z,70.31
2016-10-31T10:24:13.006Z,70.7
2016-10-31T10:25:13.178Z,70.31
2016-10-31T10:26:13.168Z,70.7
2016-10-31T10:27:13.176Z,70.98
2016-10-31T10:28:13.220Z,71.56
2016-10-31T10:29:13.783Z,70.98
2016-10-31T10:30:13.340Z,71.28
2016-10-31T10:31:13.393Z,71.28
2016-10-31T10:32:13.448Z,70.79
2016-10-31T10:33:13.511Z,69.77
2016-10-31T10:34:13.554Z,70.06
2016-10-31T10:35:13.591Z,70.15
2016-10-31T10:36:13.664Z,69.29
2016-10-31T10:37:13.688Z,68.8
2016-10-31T10:38:13.747Z,69.29
2016-10-31T10:39:13.792Z,69.67
2016-10-31T10:40:13.851Z,69.29
2016-10-31T10:41:13.897Z,69.77
2016-10-31T10:42:13.960Z,69.96
2016-10-31T10:43:14.530Z,68.71
2016-10-31T10:44:14.072Z,69.09
2016-10-31T10:45:14.663Z,68.99
2016-10-31T10:46:14.150Z,69.09
2016-10-31T10:47:14.244Z,68.84
2016-10-31T10:48:14.821Z,68.35
2016-10-31T10:49:14.357Z,68.65
2016-10-31T10:50:14.389Z,68.52
2016-10-31T10:51:14.434Z,68.71
2016-10-31T10:52:14.482Z,68.52
2016-10-31T10:53:14.542Z,67.94
2016-10-31T10:54:15.148Z,68.07
2016-10-31T10:55:14.633Z,67.78
2016-10-31T10:56:14.799Z,67.88
2016-10-31T10:57:14.752Z,68.07
2016-10-31T10:58:14.797Z,66.91
2016-10-31T10:59:14.859Z,67.2
2016-10-31T11:00:14.902Z,67.14
2016-10-31T11:01:15.043Z,67.23
2016-10-31T11:02:15.010Z,67.14
2016-10-31T11:03:15.563Z,67.91
2016-10-31T11:04:15.100Z,67.2
2016-10-31T11:05:15.671Z,67.91
2016-10-31T11:06:15.333Z,67.04
2016-10-31T11:07:15.477Z,67.04
2016-10-31T11:08:15.895Z,68.01
2016-10-31T11:09:15.352Z,67.52
2016-10-31T11:10:15.426Z,67.3
2016-10-31T11:11:15.477Z,68.16
2016-10-31T11:12:15.538Z,67.97
2016-10-31T11:13:15.583Z,67.68
2016-10-31T11:14:15.619Z,67.88
2016-10-31T11:15:15.712Z,67.88
2016-10-31T11:16:15.805Z,68.84
2016-10-31T11:17:15.793Z,67.97
2016-10-31T11:18:15.848Z,66.72
2016-10-31T11:19:15.910Z,66.82
2016-10-31T11:20:15.974Z,66.75
2016-10-31T11:21:16.025Z,67.23
2016-10-31T11:22:16.057Z,67.23
2016-10-31T11:23:16.156Z,66.94
2016-10-31T11:24:16.155Z,67.71
2016-10-31T11:25:16.265Z,66.56
2016-10-31T11:26:16.277Z,66.66
2016-10-31T11:27:16.336Z,66.85
2016-10-31T11:28:16.367Z,66.75
2016-10-31T11:29:16.437Z,68.01
2016-10-31T11:30:16.462Z,65.69
2016-10-31T11:31:16.530Z,65.98
2016-10-31T11:32:16.702Z,66.75
2016-10-31T11:33:16.625Z,67.04
2016-10-31T11:34:17.250Z,65.59
2016-10-31T11:35:16.744Z,65.4
2016-10-31T11:36:17.367Z,66.66
2016-10-31T11:37:17.477Z,65.91
2016-10-31T11:38:17.419Z,65.11
2016-10-31T11:39:16.965Z,65.3
2016-10-31T11:40:17.560Z,65.43
2016-10-31T11:41:17.588Z,64.86
2016-10-31T11:42:17.116Z,65.24
2016-10-31T11:43:17.164Z,65.72
2016-10-31T11:44:17.244Z,66.59
2016-10-31T11:45:17.279Z,66.59
2016-10-31T11:46:17.298Z,64.95
2016-10-31T11:47:17.385Z,65.24
2016-10-31T11:48:17.441Z,65.3
2016-10-31T11:49:17.507Z,65.72
2016-10-31T11:50:17.510Z,65.24
2016-10-31T11:51:17.578Z,65.24
2016-10-31T11:52:18.193Z,64.37
2016-10-31T11:53:18.241Z,64.11
2016-10-31T11:54:17.731Z,64.01
2016-10-31T11:55:18.529Z,63.92
2016-10-31T11:56:17.833Z,64.21
2016-10-31T11:57:17.895Z,63.24
2016-10-31T11:58:18.459Z,63.24
2016-10-31T11:59:17.993Z,63.34
2016-10-31T12:00:18.076Z,63.24
2016-10-31T12:01:18.102Z,63.34
2016-10-31T12:02:18.688Z,62.5
2016-10-31T12:03:18.220Z,62.5
2016-10-31T12:04:18.306Z,62.95
2016-10-31T12:05:18.298Z,63.66
2016-10-31T12:06:18.391Z,63.53
2016-10-31T12:07:18.399Z,63.24
2016-10-31T12:08:18.579Z,62.02
2016-10-31T12:09:18.554Z,62.18
2016-10-31T12:10:18.575Z,62.7
2016-10-31T12:11:18.638Z,62.02
2016-10-31T12:12:18.677Z,62.12
2016-10-31T12:13:18.876Z,62.31
2016-10-31T12:14:18.813Z,63.85
2016-10-31T12:15:18.857Z,63.37
2016-10-31T12:16:18.921Z,62.31
2016-10-31T12:17:19.493Z,62.02
2016-10-31T12:18:18.984Z,62.12
2016-10-31T12:19:19.577Z,62.79
2016-10-31T12:20:19.133Z,62.31
2016-10-31T12:21:19.150Z,63.37
2016-10-31T12:22:19.756Z,62.5
2016-10-31T12:23:19.237Z,62.7
2016-10-31T12:24:19.297Z,61.83
2016-10-31T12:25:19.354Z,61.63
2016-10-31T12:26:19.432Z,62.21
2016-10-31T12:27:19.479Z,61.44
2016-10-31T12:28:19.534Z,60.96
2016-10-31T12:29:19.576Z,62.12
2016-10-31T12:30:19.620Z,61.34
2016-10-31T12:31:19.697Z,61.44
2016-10-31T12:32:19.727Z,61.05
2016-10-31T12:33:19.991Z,61.08
2016-10-31T12:34:19.862Z,60.41
2016-10-31T12:35:19.922Z,61.37
2016-10-31T12:36:19.959Z,60.5
2016-10-31T12:37:20.607Z,60.09
2016-10-31T12:38:20.574Z,60.11
2016-10-31T12:39:20.149Z,60.69
2016-10-31T12:40:20.262Z,60.21
2016-10-31T12:41:20.720Z,59.92
2016-10-31T12:42:20.275Z,60.79
2016-10-31T12:43:20.354Z,60.6
2016-10-31T12:44:21.022Z,60.79
2016-10-31T12:45:20.439Z,59.44
2016-10-31T12:46:20.525Z,58.8
2016-10-31T12:47:20.578Z,58.98
2016-10-31T12:48:20.590Z,59.66
2016-10-31T12:49:20.980Z,59.76
2016-10-31T12:50:21.268Z,58.8
2016-10-31T12:51:20.769Z,58.89
2016-10-31T12:52:20.847Z,59.28
2016-10-31T12:53:20.890Z,58.98
2016-10-31T12:54:20.968Z,58.53
2016-10-31T12:55:21.555Z,58.24
2016-10-31T12:56:21.016Z,58.4